This is the latest recevied weather packets stored in our database for station/object GW1597. If no packets are shown the sender has not sent any weather packets the latest 10 day(s).
| Time | Temp. | Humidity | Pressure | Rain* | Wind** | Luminosity | Snow |
|---|---|---|---|---|---|---|---|
| 1777121660 | 13.89° C | 93% | 984.7 hPa | 0 mm | - | - | - |
| 1777112681 | 11.67° C | 96% | 983.7 hPa | 0 mm | - | - | - |
| 1777105103 | 11.11° C | 95% | 983.4 hPa | 0 mm | - | - | - |
| 1777104380 | 11.67° C | 95% | 983.4 hPa | 0 mm | - | - | - |
| 1777101152 | 11.67° C | 95% | 983.4 hPa | 0 mm | - | - | - |
| 1777098291 | 11.67° C | 95% | 983.4 hPa | 0 mm | - | - | - |
| 1777094690 | 12.22° C | 94% | 983.7 hPa | 0 mm | - | - | - |
| 1777092876 | 12.78° C | 94% | 983.7 hPa | 0 mm | - | - | - |
| 1777090711 | 12.78° C | 93% | 983.4 hPa | 0 mm | - | - | - |
| 1777080998 | 16.11° C | 84% | 983 hPa | 0 mm | - | - | - |
| 1777079539 | 16.67° C | 85% | 982.7 hPa | 0 mm | - | - | - |
| 1777074887 | 20.56° C | 74% | - | 0 mm | - | - | - |
| 1777074146 | 21.67° C | 67% | - | 0 mm | - | - | - |
| 1777072697 | 23.89° C | 60% | - | 0 mm | - | - | - |
| 1777071621 | 25.56° C | 54% | - | 0 mm | - | - | - |
| 1777070175 | 27.22° C | 49% | - | 0 mm | - | - | - |
| 1777068397 | 28.89° C | 38% | - | 0 mm | - | - | - |
| 1777066228 | 29.44° C | 36% | - | 0 mm | - | - | - |
| 1777063721 | 30° C | 37% | - | 0 mm | - | - | - |
| 1777062654 | 30° C | 36% | - | 0 mm | - | - | - |
| 1777062288 | 30° C | 35% | - | 0 mm | - | - | - |
| 1777059394 | 29.44° C | 43% | 983 hPa | 0 mm | - | - | - |
| 1777025387 | 8.33° C | 96% | 988.1 hPa | 0 mm | - | - | - |
| 1777019237 | 9.44° C | 96% | 987.8 hPa | 0 mm | - | - | - |
| 1777017795 | 9.44° C | 96% | 987.8 hPa | 0 mm | - | - | - |
* Rain since midnight (hover to see other rain measurements)
** Current wind speed in m/s (hover to see current wind gust speed)